sensor_id;sensor_type;location;lat;lon;timestamp;pressure;altitude;pressure_sealevel;temperature
73734;BMP280;62039;50.000;9.064;2023-07-20T00:01:32;100084.72;;;20.94
73734;BMP280;62039;50.000;9.064;2023-07-20T00:03:59;100085.28;;;20.96
73734;BMP280;62039;50.000;9.064;2023-07-20T00:06:26;100087.69;;;20.97
73734;BMP280;62039;50.000;9.064;2023-07-20T00:08:56;100084.81;;;20.99
73734;BMP280;62039;50.000;9.064;2023-07-20T00:11:26;100082.72;;;21.01
73734;BMP280;62039;50.000;9.064;2023-07-20T00:13:53;100080.88;;;21.01
73734;BMP280;62039;50.000;9.064;2023-07-20T00:16:20;100088.59;;;21.03
73734;BMP280;62039;50.000;9.064;2023-07-20T00:18:48;100087.56;;;21.04
73734;BMP280;62039;50.000;9.064;2023-07-20T00:21:15;100082.25;;;21.04
73734;BMP280;62039;50.000;9.064;2023-07-20T00:23:42;100082.25;;;21.04
73734;BMP280;62039;50.000;9.064;2023-07-20T00:26:12;100080.19;;;21.06
73734;BMP280;62039;50.000;9.064;2023-07-20T00:28:39;100084.44;;;21.07
73734;BMP280;62039;50.000;9.064;2023-07-20T00:31:06;100087.09;;;21.07
73734;BMP280;62039;50.000;9.064;2023-07-20T00:33:33;100091.16;;;21.09
73734;BMP280;62039;50.000;9.064;2023-07-20T00:36:00;100093.00;;;21.09
73734;BMP280;62039;50.000;9.064;2023-07-20T00:38:27;100093.81;;;21.09
73734;BMP280;62039;50.000;9.064;2023-07-20T00:40:54;100093.81;;;21.09
73734;BMP280;62039;50.000;9.064;2023-07-20T00:43:23;100089.28;;;21.10
73734;BMP280;62039;50.000;9.064;2023-07-20T00:45:50;100090.34;;;21.09
73734;BMP280;62039;50.000;9.064;2023-07-20T00:48:18;100098.31;;;21.09
73734;BMP280;62039;50.000;9.064;2023-07-20T00:50:45;100090.34;;;21.09
73734;BMP280;62039;50.000;9.064;2023-07-20T00:53:13;100095.06;;;21.07
73734;BMP280;62039;50.000;9.064;2023-07-20T00:55:40;100095.28;;;21.05
73734;BMP280;62039;50.000;9.064;2023-07-20T00:58:07;100099.78;;;21.05
73734;BMP280;62039;50.000;9.064;2023-07-20T01:00:37;100103.50;;;21.04
73734;BMP280;62039;50.000;9.064;2023-07-20T01:03:04;100103.97;;;21.01
73734;BMP280;62039;50.000;9.064;2023-07-20T01:05:37;100109.28;;;21.01
73734;BMP280;62039;50.000;9.064;2023-07-20T01:08:08;100099.94;;;20.98
73734;BMP280;62039;50.000;9.064;2023-07-20T01:10:40;100095.91;;;20.96
73734;BMP280;62039;50.000;9.064;2023-07-20T01:13:10;100096.38;;;20.93
73734;BMP280;62039;50.000;9.064;2023-07-20T01:15:39;100107.00;;;20.93
73734;BMP280;62039;50.000;9.064;2023-07-20T01:18:06;100096.81;;;20.90
73734;BMP280;62039;50.000;9.064;2023-07-20T01:20:34;100097.88;;;20.89
73734;BMP280;62039;50.000;9.064;2023-07-20T01:23:26;100089.78;;;20.84
73734;BMP280;62039;50.000;9.064;2023-07-20T01:26:15;100096.38;;;20.81
73734;BMP280;62039;50.000;9.064;2023-07-20T01:29:08;100095.00;;;20.79
73734;BMP280;62039;50.000;9.064;2023-07-20T01:31:39;100095.00;;;20.79
73734;BMP280;62039;50.000;9.064;2023-07-20T01:34:08;100096.25;;;20.76
73734;BMP280;62039;50.000;9.064;2023-07-20T01:36:38;100107.94;;;20.75
73734;BMP280;62039;50.000;9.064;2023-07-20T01:39:06;100105.47;;;20.73
73734;BMP280;62039;50.000;9.064;2023-07-20T01:41:34;100102.25;;;20.71
73734;BMP280;62039;50.000;9.064;2023-07-20T01:44:03;100109.41;;;20.71
73734;BMP280;62039;50.000;9.064;2023-07-20T01:46:30;100106.97;;;20.69
73734;BMP280;62039;50.000;9.064;2023-07-20T01:49:00;100109.88;;;20.68
73734;BMP280;62039;50.000;9.064;2023-07-20T01:51:27;100105.81;;;20.65
73734;BMP280;62039;50.000;9.064;2023-07-20T01:53:54;100098.91;;;20.64
73734;BMP280;62039;50.000;9.064;2023-07-20T01:56:21;100101.78;;;20.63
73734;BMP280;62039;50.000;9.064;2023-07-20T01:58:48;100106.53;;;20.61
73734;BMP280;62039;50.000;9.064;2023-07-20T02:01:15;100107.56;;;20.60
73734;BMP280;62039;50.000;9.064;2023-07-20T02:03:42;100103.53;;;20.57
73734;BMP280;62039;50.000;9.064;2023-07-20T02:06:12;100103.53;;;20.57
73734;BMP280;62039;50.000;9.064;2023-07-20T02:08:39;100102.97;;;20.55
73734;BMP280;62039;50.000;9.064;2023-07-20T02:11:06;100104.00;;;20.54
73734;BMP280;62039;50.000;9.064;2023-07-20T02:13:33;100106.06;;;20.52
73734;BMP280;62039;50.000;9.064;2023-07-20T02:16:00;100107.09;;;20.51
73734;BMP280;62039;50.000;9.064;2023-07-20T02:18:27;100105.47;;;20.50
73734;BMP280;62039;50.000;9.064;2023-07-20T02:20:54;100107.81;;;20.47
73734;BMP280;62039;50.000;9.064;2023-07-20T02:23:23;100100.06;;;20.45
73734;BMP280;62039;50.000;9.064;2023-07-20T02:25:50;100097.63;;;20.44
73734;BMP280;62039;50.000;9.064;2023-07-20T02:28:17;100097.09;;;20.42
73734;BMP280;62039;50.000;9.064;2023-07-20T02:30:44;100101.00;;;20.39
73734;BMP280;62039;50.000;9.064;2023-07-20T02:33:11;100111.22;;;20.35
73734;BMP280;62039;50.000;9.064;2023-07-20T02:35:40;100117.81;;;20.33
73734;BMP280;62039;50.000;9.064;2023-07-20T02:38:07;100117.25;;;20.31
73734;BMP280;62039;50.000;9.064;2023-07-20T02:40:36;100122.75;;;20.29
73734;BMP280;62039;50.000;9.064;2023-07-20T02:43:03;100103.66;;;20.27
73734;BMP280;62039;50.000;9.064;2023-07-20T02:45:30;100112.63;;;20.26
73734;BMP280;62039;50.000;9.064;2023-07-20T02:47:57;100114.69;;;20.24
73734;BMP280;62039;50.000;9.064;2023-07-20T02:50:24;100108.59;;;20.24
73734;BMP280;62039;50.000;9.064;2023-07-20T02:52:51;100111.47;;;20.22
73734;BMP280;62039;50.000;9.064;2023-07-20T02:55:18;100120.47;;;20.21
73734;BMP280;62039;50.000;9.064;2023-07-20T02:57:48;100113.56;;;20.20
73734;BMP280;62039;50.000;9.064;2023-07-20T03:00:16;100124.38;;;20.19
73734;BMP280;62039;50.000;9.064;2023-07-20T03:02:43;100129.91;;;20.17
73734;BMP280;62039;50.000;9.064;2023-07-20T03:05:10;100123.78;;;20.17
73734;BMP280;62039;50.000;9.064;2023-07-20T03:07:37;100122.16;;;20.16
73734;BMP280;62039;50.000;9.064;2023-07-20T03:10:05;100124.22;;;20.14
73734;BMP280;62039;50.000;9.064;2023-07-20T03:12:32;100124.44;;;20.12
73734;BMP280;62039;50.000;9.064;2023-07-20T03:15:02;100118.56;;;20.10
73734;BMP280;62039;50.000;9.064;2023-07-20T03:17:29;100124.34;;;20.07
73734;BMP280;62039;50.000;9.064;2023-07-20T03:19:56;100118.66;;;20.04
73734;BMP280;62039;50.000;9.064;2023-07-20T03:22:23;100123.63;;;20.00
73734;BMP280;62039;50.000;9.064;2023-07-20T03:24:50;100125.69;;;19.98
73734;BMP280;62039;50.000;9.064;2023-07-20T03:27:17;100132.22;;;19.95
73734;BMP280;62039;50.000;9.064;2023-07-20T03:29:44;100131.69;;;19.93
73734;BMP280;62039;50.000;9.064;2023-07-20T03:32:14;100131.09;;;19.91
73734;BMP280;62039;50.000;9.064;2023-07-20T03:34:41;100126.22;;;19.88
73734;BMP280;62039;50.000;9.064;2023-07-20T03:37:08;100128.09;;;19.88
73734;BMP280;62039;50.000;9.064;2023-07-20T03:39:35;100132.00;;;19.85
73734;BMP280;62039;50.000;9.064;2023-07-20T03:42:02;100130.84;;;19.81
73734;BMP280;62039;50.000;9.064;2023-07-20T03:44:29;100136.56;;;19.78
73734;BMP280;62039;50.000;9.064;2023-07-20T03:46:56;100139.09;;;19.73
73734;BMP280;62039;50.000;9.064;2023-07-20T03:49:26;100133.63;;;19.68
73734;BMP280;62039;50.000;9.064;2023-07-20T03:51:53;100139.84;;;19.62
73734;BMP280;62039;50.000;9.064;2023-07-20T03:54:20;100142.38;;;19.57
73734;BMP280;62039;50.000;9.064;2023-07-20T03:56:47;100138.56;;;19.53
73734;BMP280;62039;50.000;9.064;2023-07-20T03:59:14;100142.63;;;19.49
73734;BMP280;62039;50.000;9.064;2023-07-20T04:01:41;100147.56;;;19.45
73734;BMP280;62039;50.000;9.064;2023-07-20T04:04:08;100148.81;;;19.43
73734;BMP280;62039;50.000;9.064;2023-07-20T04:06:37;100149.28;;;19.40
73734;BMP280;62039;50.000;9.064;2023-07-20T04:09:04;100153.97;;;19.38
73734;BMP280;62039;50.000;9.064;2023-07-20T04:11:31;100152.56;;;19.35
73734;BMP280;62039;50.000;9.064;2023-07-20T04:13:58;100154.06;;;19.31
73734;BMP280;62039;50.000;9.064;2023-07-20T04:16:25;100152.66;;;19.29
73734;BMP280;62039;50.000;9.064;2023-07-20T04:18:54;100150.25;;;19.27
73734;BMP280;62039;50.000;9.064;2023-07-20T04:21:22;100152.50;;;19.24
73734;BMP280;62039;50.000;9.064;2023-07-20T04:23:52;100158.84;;;19.23
73734;BMP280;62039;50.000;9.064;2023-07-20T04:26:19;100153.19;;;19.19
73734;BMP280;62039;50.000;9.064;2023-07-20T04:28:46;100148.09;;;19.17
73734;BMP280;62039;50.000;9.064;2023-07-20T04:31:13;100157.06;;;19.16
73734;BMP280;62039;50.000;9.064;2023-07-20T04:33:41;100152.81;;;19.15
73734;BMP280;62039;50.000;9.064;2023-07-20T04:36:08;100151.19;;;19.14
73734;BMP280;62039;50.000;9.064;2023-07-20T04:38:35;100148.78;;;19.13
73734;BMP280;62039;50.000;9.064;2023-07-20T04:41:04;100147.75;;;19.14
73734;BMP280;62039;50.000;9.064;2023-07-20T04:43:31;100144.50;;;19.12
73734;BMP280;62039;50.000;9.064;2023-07-20T04:45:58;100152.47;;;19.12
73734;BMP280;62039;50.000;9.064;2023-07-20T04:48:29;100161.41;;;19.11
73734;BMP280;62039;50.000;9.064;2023-07-20T04:50:57;100157.16;;;19.10
73734;BMP280;62039;50.000;9.064;2023-07-20T04:53:24;100160.59;;;19.10
73734;BMP280;62039;50.000;9.064;2023-07-20T04:55:51;100150.84;;;19.11
73734;BMP280;62039;50.000;9.064;2023-07-20T04:58:22;100154.06;;;19.13
73734;BMP280;62039;50.000;9.064;2023-07-20T05:00:49;100158.34;;;19.14
73734;BMP280;62039;50.000;9.064;2023-07-20T05:03:17;100158.09;;;19.15
73734;BMP280;62039;50.000;9.064;2023-07-20T05:05:46;100161.34;;;19.17
73734;BMP280;62039;50.000;9.064;2023-07-20T05:08:16;100161.94;;;19.19
73734;BMP280;62039;50.000;9.064;2023-07-20T05:10:43;100163.09;;;19.24
73734;BMP280;62039;50.000;9.064;2023-07-20T05:13:13;100163.50;;;19.27
73734;BMP280;62039;50.000;9.064;2023-07-20T05:15:43;100165.69;;;19.30
73734;BMP280;62039;50.000;9.064;2023-07-20T05:18:10;100167.91;;;19.33
73734;BMP280;62039;50.000;9.064;2023-07-20T05:20:37;100171.94;;;19.36
73734;BMP280;62039;50.000;9.064;2023-07-20T05:23:04;100166.78;;;19.41
73734;BMP280;62039;50.000;9.064;2023-07-20T05:25:31;100166.34;;;19.44
73734;BMP280;62039;50.000;9.064;2023-07-20T05:27:58;100164.28;;;19.46
73734;BMP280;62039;50.000;9.064;2023-07-20T05:30:25;100163.81;;;19.49
73734;BMP280;62039;50.000;9.064;2023-07-20T05:32:54;100165.03;;;19.53
73734;BMP280;62039;50.000;9.064;2023-07-20T05:35:21;100166.66;;;19.54
73734;BMP280;62039;50.000;9.064;2023-07-20T05:37:48;100173.72;;;19.60
73734;BMP280;62039;50.000;9.064;2023-07-20T05:40:16;100169.56;;;19.64
73734;BMP280;62039;50.000;9.064;2023-07-20T05:42:43;100170.53;;;19.70
73734;BMP280;62039;50.000;9.064;2023-07-20T05:45:10;100173.34;;;19.75
73734;BMP280;62039;50.000;9.064;2023-07-20T05:47:37;100172.19;;;19.82
73734;BMP280;62039;50.000;9.064;2023-07-20T05:50:08;100178.19;;;19.89
73734;BMP280;62039;50.000;9.064;2023-07-20T05:52:36;100177.53;;;19.94
73734;BMP280;62039;50.000;9.064;2023-07-20T05:55:04;100182.75;;;20.01
73734;BMP280;62039;50.000;9.064;2023-07-20T05:57:34;100178.59;;;20.05
73734;BMP280;62039;50.000;9.064;2023-07-20T06:00:01;100177.34;;;20.07
73734;BMP280;62039;50.000;9.064;2023-07-20T06:02:28;100186.47;;;20.11
73734;BMP280;62039;50.000;9.064;2023-07-20T06:04:55;100188.72;;;20.14
73734;BMP280;62039;50.000;9.064;2023-07-20T06:07:24;100179.25;;;20.18
73734;BMP280;62039;50.000;9.064;2023-07-20T06:09:51;100190.22;;;20.22
73734;BMP280;62039;50.000;9.064;2023-07-20T06:12:18;100188.94;;;20.24
73734;BMP280;62039;50.000;9.064;2023-07-20T06:14:45;100191.97;;;20.28
73734;BMP280;62039;50.000;9.064;2023-07-20T06:17:12;100197.41;;;20.33
73734;BMP280;62039;50.000;9.064;2023-07-20T06:19:39;100202.22;;;20.36
73734;BMP280;62039;50.000;9.064;2023-07-20T06:22:06;100197.50;;;20.38
73734;BMP280;62039;50.000;9.064;2023-07-20T06:24:36;100196.03;;;20.42
73734;BMP280;62039;50.000;9.064;2023-07-20T06:27:03;100199.03;;;20.46
73734;BMP280;62039;50.000;9.064;2023-07-20T06:29:30;100196.72;;;20.49
73734;BMP280;62039;50.000;9.064;2023-07-20T06:31:57;100190.16;;;20.52
73734;BMP280;62039;50.000;9.064;2023-07-20T06:34:25;100197.66;;;20.55
73734;BMP280;62039;50.000;9.064;2023-07-20T06:36:52;100195.81;;;20.55
73734;BMP280;62039;50.000;9.064;2023-07-20T06:39:19;100193.72;;;20.57
73734;BMP280;62039;50.000;9.064;2023-07-20T06:41:51;100194.53;;;20.58
73734;BMP280;62039;50.000;9.064;2023-07-20T06:44:21;100197.41;;;20.56
73734;BMP280;62039;50.000;9.064;2023-07-20T06:46:48;100192.09;;;20.56
73734;BMP280;62039;50.000;9.064;2023-07-20T06:49:24;100194.31;;;20.59
73734;BMP280;62039;50.000;9.064;2023-07-20T06:51:51;100189.59;;;20.61
73734;BMP280;62039;50.000;9.064;2023-07-20T06:54:18;100194.00;;;20.67
73734;BMP280;62039;50.000;9.064;2023-07-20T06:56:52;100196.53;;;20.74
73734;BMP280;62039;50.000;9.064;2023-07-20T06:59:22;100197.94;;;20.76
73734;BMP280;62039;50.000;9.064;2023-07-20T07:01:49;100199.91;;;20.81
73734;BMP280;62039;50.000;9.064;2023-07-20T07:04:16;100192.06;;;20.86
73734;BMP280;62039;50.000;9.064;2023-07-20T07:06:43;100191.13;;;20.92
73734;BMP280;62039;50.000;9.064;2023-07-20T07:09:10;100195.88;;;21.02
73734;BMP280;62039;50.000;9.064;2023-07-20T07:11:37;100196.56;;;21.09
73734;BMP280;62039;50.000;9.064;2023-07-20T07:14:07;100196.66;;;21.14
73734;BMP280;62039;50.000;9.064;2023-07-20T07:16:34;100194.91;;;21.20
73734;BMP280;62039;50.000;9.064;2023-07-20T07:19:05;100193.75;;;21.27
73734;BMP280;62039;50.000;9.064;2023-07-20T07:21:32;100190.28;;;21.38
73734;BMP280;62039;50.000;9.064;2023-07-20T07:23:59;100203.53;;;21.50
73734;BMP280;62039;50.000;9.064;2023-07-20T07:26:26;100194.97;;;21.60
73734;BMP280;62039;50.000;9.064;2023-07-20T07:28:53;100198.28;;;21.67
73734;BMP280;62039;50.000;9.064;2023-07-20T07:31:22;100202.19;;;21.76
73734;BMP280;62039;50.000;9.064;2023-07-20T07:33:51;100201.25;;;21.82
73734;BMP280;62039;50.000;9.064;2023-07-20T07:36:18;100207.22;;;21.89
73734;BMP280;62039;50.000;9.064;2023-07-20T07:38:45;100203.88;;;21.93
73734;BMP280;62039;50.000;9.064;2023-07-20T07:41:28;100198.88;;;21.97
73734;BMP280;62039;50.000;9.064;2023-07-20T07:43:56;100193.44;;;22.04
73734;BMP280;62039;50.000;9.064;2023-07-20T07:46:25;100198.59;;;22.10
73734;BMP280;62039;50.000;9.064;2023-07-20T07:48:53;100200.31;;;22.16
73734;BMP280;62039;50.000;9.064;2023-07-20T07:51:20;100200.38;;;22.21
73734;BMP280;62039;50.000;9.064;2023-07-20T07:53:47;100199.09;;;22.24
73734;BMP280;62039;50.000;9.064;2023-07-20T07:56:14;100201.84;;;22.29
73734;BMP280;62039;50.000;9.064;2023-07-20T07:58:41;100201.94;;;22.34
73734;BMP280;62039;50.000;9.064;2023-07-20T08:01:08;100193.22;;;22.39
73734;BMP280;62039;50.000;9.064;2023-07-20T08:03:38;100200.22;;;22.45
73734;BMP280;62039;50.000;9.064;2023-07-20T08:06:05;100193.19;;;22.50
73734;BMP280;62039;50.000;9.064;2023-07-20T08:08:32;100197.19;;;22.53
73734;BMP280;62039;50.000;9.064;2023-07-20T08:10:59;100193.03;;;22.57
73734;BMP280;62039;50.000;9.064;2023-07-20T08:13:32;100198.66;;;22.60
73734;BMP280;62039;50.000;9.064;2023-07-20T08:16:00;100199.00;;;22.64
73734;BMP280;62039;50.000;9.064;2023-07-20T08:18:27;100195.25;;;22.65
73734;BMP280;62039;50.000;9.064;2023-07-20T08:20:57;100199.88;;;22.69
73734;BMP280;62039;50.000;9.064;2023-07-20T08:23:24;100192.53;;;22.77
73734;BMP280;62039;50.000;9.064;2023-07-20T08:25:51;100185.72;;;22.86
73734;BMP280;62039;50.000;9.064;2023-07-20T08:28:18;100191.19;;;22.96
73734;BMP280;62039;50.000;9.064;2023-07-20T08:30:46;100191.81;;;23.03
73734;BMP280;62039;50.000;9.064;2023-07-20T08:33:15;100202.00;;;23.06
73734;BMP280;62039;50.000;9.064;2023-07-20T08:35:42;100186.34;;;23.09
73734;BMP280;62039;50.000;9.064;2023-07-20T08:38:12;100192.31;;;23.17
73734;BMP280;62039;50.000;9.064;2023-07-20T08:40:40;100190.28;;;23.24
73734;BMP280;62039;50.000;9.064;2023-07-20T08:43:08;100191.13;;;23.29
73734;BMP280;62039;50.000;9.064;2023-07-20T08:45:36;100189.34;;;23.35
73734;BMP280;62039;50.000;9.064;2023-07-20T08:48:05;100191.50;;;23.38
73734;BMP280;62039;50.000;9.064;2023-07-20T08:50:33;100184.63;;;23.42
73734;BMP280;62039;50.000;9.064;2023-07-20T08:53:01;100189.16;;;23.41
73734;BMP280;62039;50.000;9.064;2023-07-20T08:55:31;100193.19;;;23.44
73734;BMP280;62039;50.000;9.064;2023-07-20T08:58:00;100195.09;;;23.48
73734;BMP280;62039;50.000;9.064;2023-07-20T09:00:29;100194.84;;;23.50
73734;BMP280;62039;50.000;9.064;2023-07-20T09:02:57;100195.66;;;23.51
73734;BMP280;62039;50.000;9.064;2023-07-20T09:05:25;100192.66;;;23.47
73734;BMP280;62039;50.000;9.064;2023-07-20T09:07:53;100195.84;;;23.44
73734;BMP280;62039;50.000;9.064;2023-07-20T09:10:21;100191.56;;;23.43
73734;BMP280;62039;50.000;9.064;2023-07-20T09:12:51;100190.75;;;23.42
73734;BMP280;62039;50.000;9.064;2023-07-20T09:15:19;100195.03;;;23.43
73734;BMP280;62039;50.000;9.064;2023-07-20T09:17:47;100190.00;;;23.47
73734;BMP280;62039;50.000;9.064;2023-07-20T09:20:15;100187.16;;;23.54
73734;BMP280;62039;50.000;9.064;2023-07-20T09:22:43;100185.44;;;23.64
73734;BMP280;62039;50.000;9.064;2023-07-20T09:25:11;100177.53;;;23.74
73734;BMP280;62039;50.000;9.064;2023-07-20T09:27:39;100194.72;;;23.83
73734;BMP280;62039;50.000;9.064;2023-07-20T09:30:10;100189.41;;;23.88
73734;BMP280;62039;50.000;9.064;2023-07-20T09:32:45;100186.81;;;23.94
73734;BMP280;62039;50.000;9.064;2023-07-20T09:35:16;100184.50;;;24.02
73734;BMP280;62039;50.000;9.064;2023-07-20T09:37:47;100182.19;;;24.11
73734;BMP280;62039;50.000;9.064;2023-07-20T09:40:17;100177.19;;;24.19
73734;BMP280;62039;50.000;9.064;2023-07-20T09:42:45;100176.25;;;24.31
73734;BMP280;62039;50.000;9.064;2023-07-20T09:45:39;100167.00;;;24.43
73734;BMP280;62039;50.000;9.064;2023-07-20T09:48:25;100167.34;;;24.57
73734;BMP280;62039;50.000;9.064;2023-07-20T09:50:55;100170.28;;;24.60
73734;BMP280;62039;50.000;9.064;2023-07-20T09:53:25;100163.94;;;24.66
73734;BMP280;62039;50.000;9.064;2023-07-20T09:55:52;100165.34;;;24.74
73734;BMP280;62039;50.000;9.064;2023-07-20T09:58:21;100170.47;;;24.81
73734;BMP280;62039;50.000;9.064;2023-07-20T10:00:51;100159.03;;;24.90
73734;BMP280;62039;50.000;9.064;2023-07-20T10:03:21;100168.44;;;24.98
73734;BMP280;62039;50.000;9.064;2023-07-20T10:05:52;100160.97;;;25.05
73734;BMP280;62039;50.000;9.064;2023-07-20T10:08:24;100163.94;;;25.09
73734;BMP280;62039;50.000;9.064;2023-07-20T10:10:54;100153.53;;;25.12
73734;BMP280;62039;50.000;9.064;2023-07-20T10:13:26;100158.34;;;25.15
73734;BMP280;62039;50.000;9.064;2023-07-20T10:16:00;100154.59;;;25.16
73734;BMP280;62039;50.000;9.064;2023-07-20T10:18:32;100152.47;;;25.13
73734;BMP280;62039;50.000;9.064;2023-07-20T10:21:01;100156.22;;;25.12
73734;BMP280;62039;50.000;9.064;2023-07-20T10:23:33;100154.59;;;25.11
73734;BMP280;62039;50.000;9.064;2023-07-20T10:26:01;100153.78;;;25.11
73734;BMP280;62039;50.000;9.064;2023-07-20T10:28:28;100145.47;;;25.02
73734;BMP280;62039;50.000;9.064;2023-07-20T10:30:58;100142.78;;;24.97
73734;BMP280;62039;50.000;9.064;2023-07-20T10:33:25;100144.63;;;24.91
73734;BMP280;62039;50.000;9.064;2023-07-20T10:35:54;100144.06;;;24.84
73734;BMP280;62039;50.000;9.064;2023-07-20T10:38:39;100141.84;;;24.71
73734;BMP280;62039;50.000;9.064;2023-07-20T10:41:16;100142.53;;;24.61
73734;BMP280;62039;50.000;9.064;2023-07-20T10:43:43;100132.88;;;24.50
73734;BMP280;62039;50.000;9.064;2023-07-20T10:46:13;100128.25;;;24.41
73734;BMP280;62039;50.000;9.064;2023-07-20T10:49:08;100137.81;;;24.32
73734;BMP280;62039;50.000;9.064;2023-07-20T10:51:39;100142.81;;;24.23
73734;BMP280;62039;50.000;9.064;2023-07-20T10:54:08;100136.00;;;24.10
73734;BMP280;62039;50.000;9.064;2023-07-20T10:56:35;100136.19;;;23.99
73734;BMP280;62039;50.000;9.064;2023-07-20T10:59:17;100139.31;;;23.91
73734;BMP280;62039;50.000;9.064;2023-07-20T11:01:47;100134.47;;;23.87
73734;BMP280;62039;50.000;9.064;2023-07-20T11:04:14;100134.19;;;23.84
73734;BMP280;62039;50.000;9.064;2023-07-20T11:06:42;100123.28;;;23.85
73734;BMP280;62039;50.000;9.064;2023-07-20T11:09:14;100122.25;;;23.92
73734;BMP280;62039;50.000;9.064;2023-07-20T11:11:42;100121.78;;;24.00
73734;BMP280;62039;50.000;9.064;2023-07-20T11:14:11;100134.66;;;24.08
73734;BMP280;62039;50.000;9.064;2023-07-20T11:16:50;100120.38;;;24.19
73734;BMP280;62039;50.000;9.064;2023-07-20T11:19:18;100116.72;;;24.30
73734;BMP280;62039;50.000;9.064;2023-07-20T11:21:50;100116.78;;;24.40
73734;BMP280;62039;50.000;9.064;2023-07-20T11:24:29;100117.91;;;24.49
73734;BMP280;62039;50.000;9.064;2023-07-20T11:26:56;100117.44;;;24.57
73734;BMP280;62039;50.000;9.064;2023-07-20T11:29:24;100117.19;;;24.64
73734;BMP280;62039;50.000;9.064;2023-07-20T11:32:02;100114.03;;;24.67
73734;BMP280;62039;50.000;9.064;2023-07-20T11:34:32;100107.13;;;24.71
73734;BMP280;62039;50.000;9.064;2023-07-20T11:37:00;100109.25;;;24.74
73734;BMP280;62039;50.000;9.064;2023-07-20T11:39:30;100109.31;;;24.79
73734;BMP280;62039;50.000;9.064;2023-07-20T11:41:57;100107.97;;;24.82
73734;BMP280;62039;50.000;9.064;2023-07-20T11:44:26;100109.84;;;24.81
73734;BMP280;62039;50.000;9.064;2023-07-20T11:47:04;100106.63;;;24.79
73734;BMP280;62039;50.000;9.064;2023-07-20T11:49:35;100106.91;;;24.78
73734;BMP280;62039;50.000;9.064;2023-07-20T11:52:03;100112.22;;;24.78
73734;BMP280;62039;50.000;9.064;2023-07-20T11:54:30;100113.28;;;24.77
73734;BMP280;62039;50.000;9.064;2023-07-20T11:57:00;100106.63;;;24.79
73734;BMP280;62039;50.000;9.064;2023-07-20T11:59:28;100104.25;;;24.83
73734;BMP280;62039;50.000;9.064;2023-07-20T12:01:55;100095.44;;;24.87
73734;BMP280;62039;50.000;9.064;2023-07-20T12:04:25;100097.34;;;24.92
73734;BMP280;62039;50.000;9.064;2023-07-20T12:06:53;100093.06;;;24.96
73734;BMP280;62039;50.000;9.064;2023-07-20T12:09:20;100094.69;;;24.97
73734;BMP280;62039;50.000;9.064;2023-07-20T12:11:49;100100.53;;;24.94
73734;BMP280;62039;50.000;9.064;2023-07-20T12:14:16;100090.91;;;24.88
73734;BMP280;62039;50.000;9.064;2023-07-20T12:16:44;100087.72;;;24.86
73734;BMP280;62039;50.000;9.064;2023-07-20T12:19:12;100081.03;;;24.88
73734;BMP280;62039;50.000;9.064;2023-07-20T12:21:42;100080.50;;;24.91
73734;BMP280;62039;50.000;9.064;2023-07-20T12:24:10;100089.59;;;24.90
73734;BMP280;62039;50.000;9.064;2023-07-20T12:26:37;100085.06;;;24.91
73734;BMP280;62039;50.000;9.064;2023-07-20T12:29:04;100080.78;;;24.95
73734;BMP280;62039;50.000;9.064;2023-07-20T12:31:36;100071.19;;;25.04
73734;BMP280;62039;50.000;9.064;2023-07-20T12:34:03;100066.16;;;25.13
73734;BMP280;62039;50.000;9.064;2023-07-20T12:36:30;100068.06;;;25.22
73734;BMP280;62039;50.000;9.064;2023-07-20T12:39:00;100066.50;;;25.31
73734;BMP280;62039;50.000;9.064;2023-07-20T12:41:27;100061.41;;;25.35
73734;BMP280;62039;50.000;9.064;2023-07-20T12:43:54;100053.69;;;25.38
73734;BMP280;62039;50.000;9.064;2023-07-20T12:46:21;100049.94;;;25.45
73734;BMP280;62039;50.000;9.064;2023-07-20T12:48:48;100048.88;;;25.51
73734;BMP280;62039;50.000;9.064;2023-07-20T12:51:16;100055.03;;;25.56
73734;BMP280;62039;50.000;9.064;2023-07-20T12:53:43;100058.25;;;25.58
73734;BMP280;62039;50.000;9.064;2023-07-20T12:56:13;100049.41;;;25.63
73734;BMP280;62039;50.000;9.064;2023-07-20T12:58:43;100049.16;;;25.69
73734;BMP280;62039;50.000;9.064;2023-07-20T13:01:10;100045.97;;;25.77
73734;BMP280;62039;50.000;9.064;2023-07-20T13:03:37;100044.91;;;25.89
73734;BMP280;62039;50.000;9.064;2023-07-20T13:06:24;100046.22;;;26.01
73734;BMP280;62039;50.000;9.064;2023-07-20T13:08:54;100044.63;;;26.10
73734;BMP280;62039;50.000;9.064;2023-07-20T13:11:24;100051.56;;;26.22
73734;BMP280;62039;50.000;9.064;2023-07-20T13:13:51;100039.78;;;26.33
73734;BMP280;62039;50.000;9.064;2023-07-20T13:16:18;100032.78;;;26.47
73734;BMP280;62039;50.000;9.064;2023-07-20T13:18:45;100027.91;;;26.59
73734;BMP280;62039;50.000;9.064;2023-07-20T13:21:12;100017.94;;;26.70
73734;BMP280;62039;50.000;9.064;2023-07-20T13:23:39;100028.94;;;26.78
73734;BMP280;62039;50.000;9.064;2023-07-20T13:26:07;100020.06;;;26.88
73734;BMP280;62039;50.000;9.064;2023-07-20T13:28:37;100025.63;;;26.96
73734;BMP280;62039;50.000;9.064;2023-07-20T13:31:04;100013.78;;;27.03
73734;BMP280;62039;50.000;9.064;2023-07-20T13:33:31;100014.59;;;27.03
73734;BMP280;62039;50.000;9.064;2023-07-20T13:36:04;100004.44;;;27.00
73734;BMP280;62039;50.000;9.064;2023-07-20T13:38:34;100011.69;;;27.00
73734;BMP280;62039;50.000;9.064;2023-07-20T13:41:01;100013.28;;;27.01
73734;BMP280;62039;50.000;9.064;2023-07-20T13:43:28;100020.75;;;27.04
73734;BMP280;62039;50.000;9.064;2023-07-20T13:45:58;100015.41;;;27.04
73734;BMP280;62039;50.000;9.064;2023-07-20T13:48:25;100013.28;;;27.01
73734;BMP280;62039;50.000;9.064;2023-07-20T13:50:54;100018.13;;;26.98
73734;BMP280;62039;50.000;9.064;2023-07-20T13:53:24;100011.16;;;26.97
73734;BMP280;62039;50.000;9.064;2023-07-20T13:55:54;100004.97;;;26.97
73734;BMP280;62039;50.000;9.064;2023-07-20T13:58:24;99997.75;;;26.97
73734;BMP280;62039;50.000;9.064;2023-07-20T14:00:51;100004.19;;;26.96
73734;BMP280;62039;50.000;9.064;2023-07-20T14:03:21;100001.00;;;26.94
73734;BMP280;62039;50.000;9.064;2023-07-20T14:05:48;100006.66;;;26.88